Time;durP1;ratioP1;P1;durP2;ratioP2;P2;SDS_P1;SDS_P2;PMS_P1;PMS_P2;Temp;Humidity;BMP_temperature;BMP_pressure;BME280_temperature;BME280_humidity;BME280_pressure;Samples;Min_cycle;Max_cycle;Signal;HPM_P1;HPM_P2
2024/02/12 00:00:27;;;;;;;10.60;2.35;;;5.70;99.90;;;;;;5035424;28;20053;-62
2024/02/12 00:02:55;;;;;;;10.73;2.00;;;5.70;99.90;;;;;;5035416;28;20385;-62
2024/02/12 00:05:23;;;;;;;9.52;2.10;;;5.70;99.90;;;;;;5035206;28;20456;-63
2024/02/12 00:07:50;;;;;;;11.10;2.40;;;5.70;99.90;;;;;;5035553;28;20055;-62
2024/02/12 00:10:17;;;;;;;10.80;3.22;;;5.70;99.90;;;;;;5035576;28;20045;-62
2024/02/12 00:12:45;;;;;;;12.60;2.25;;;5.70;99.90;;;;;;5035922;28;20045;-62
2024/02/12 00:15:12;;;;;;;11.65;2.40;;;5.70;99.90;;;;;;5034981;28;20053;-62
2024/02/12 00:17:39;;;;;;;9.88;2.50;;;5.70;99.90;;;;;;5035757;28;20092;-63
2024/02/12 00:20:10;;;;;;;13.75;2.30;;;5.70;99.90;;;;;;5035790;28;20041;-62
2024/02/12 00:22:39;;;;;;;10.80;2.17;;;5.70;99.90;;;;;;5035166;28;20127;-62
2024/02/12 00:25:07;;;;;;;10.02;1.95;;;5.70;99.90;;;;;;5034087;28;20495;-62
2024/02/12 00:27:34;;;;;;;12.18;2.20;;;5.70;99.90;;;;;;5035413;28;20042;-62
2024/02/12 00:30:01;;;;;;;10.40;1.65;;;5.70;99.90;;;;;;5035429;28;20061;-62
2024/02/12 00:32:28;;;;;;;11.25;1.88;;;5.70;99.90;;;;;;5035134;28;20045;-62
2024/02/12 00:34:57;;;;;;;13.50;2.22;;;5.70;99.90;;;;;;5033905;28;20124;-62
2024/02/12 00:37:27;;;;;;;11.18;2.25;;;5.70;99.90;;;;;;5034891;28;20483;-63
2024/02/12 00:39:54;;;;;;;9.30;2.53;;;5.70;99.90;;;;;;5035201;28;20048;-62
2024/02/12 00:42:23;;;;;;;14.70;3.10;;;5.70;99.90;;;;;;5045109;28;20041;-62
2024/02/12 00:44:50;;;;;;;9.73;1.80;;;5.70;99.90;;;;;;5055030;28;20478;-62
2024/02/12 00:47:18;;;;;;;12.90;2.20;;;5.70;99.90;;;;;;5055003;28;20047;-62
2024/02/12 00:49:45;;;;;;;11.18;1.92;;;5.70;99.90;;;;;;5054801;28;20108;-62
2024/02/12 00:52:11;;;;;;;13.40;1.90;;;5.70;99.90;;;;;;5044102;28;20471;-62
2024/02/12 00:54:41;;;;;;;10.38;1.83;;;5.60;99.90;;;;;;5034665;28;20043;-62
2024/02/12 00:57:09;;;;;;;10.93;2.05;;;5.60;99.90;;;;;;5034878;28;20045;-62
2024/02/12 00:59:40;;;;;;;13.63;2.53;;;5.60;99.90;;;;;;5034751;28;20041;-62
2024/02/12 01:02:10;;;;;;;12.35;1.80;;;5.60;99.90;;;;;;5035849;28;20037;-62
2024/02/12 01:04:37;;;;;;;16.02;2.38;;;5.60;99.90;;;;;;5019506;28;20045;-62
2024/02/12 01:07:04;;;;;;;13.82;2.10;;;5.60;99.90;;;;;;5023087;28;20065;-62
2024/02/12 01:09:31;;;;;;;10.90;1.92;;;5.60;99.90;;;;;;5021461;28;20535;-63
2024/02/12 01:11:59;;;;;;;9.75;2.00;;;5.50;99.90;;;;;;5028676;28;20111;-63
2024/02/12 01:14:29;;;;;;;9.15;1.60;;;5.60;99.90;;;;;;5044196;28;20110;-61
2024/02/12 01:17:54;;;;;;;;;;;5.60;99.90;;;;;;5040626;28;20149;-61
2024/02/12 01:20:36;;;;;;;10.65;2.17;;;5.50;99.90;;;;;;5074041;28;19927;-61
2024/02/12 01:23:03;;;;;;;13.30;1.90;;;5.50;99.90;;;;;;5074224;28;20166;-61
2024/02/12 01:25:30;;;;;;;9.35;1.80;;;5.50;99.90;;;;;;5073731;28;20432;-61
2024/02/12 01:28:00;;;;;;;10.38;1.70;;;5.50;99.90;;;;;;5074149;28;20808;-61
2024/02/12 01:30:28;;;;;;;6.68;2.20;;;5.50;99.90;;;;;;5074293;28;20501;-61
2024/02/12 01:32:55;;;;;;;12.32;2.35;;;5.50;99.90;;;;;;5074064;28;20482;-62
2024/02/12 01:35:23;;;;;;;9.55;1.75;;;5.50;99.90;;;;;;5073783;28;20507;-63
2024/02/12 01:37:51;;;;;;;8.88;1.65;;;5.40;99.90;;;;;;5074086;28;20056;-62
2024/02/12 01:40:18;;;;;;;9.20;1.67;;;5.40;99.90;;;;;;5073867;28;20123;-62
2024/02/12 01:42:45;;;;;;;11.88;1.65;;;5.40;99.90;;;;;;5073548;28;20067;-63
2024/02/12 01:45:13;;;;;;;11.13;1.70;;;5.40;99.90;;;;;;5073849;28;20052;-62
2024/02/12 01:47:41;;;;;;;10.73;1.80;;;5.40;99.90;;;;;;5073702;28;20505;-62
2024/02/12 01:50:10;;;;;;;10.35;2.10;;;5.40;99.90;;;;;;5073727;28;20032;-62
2024/02/12 01:52:37;;;;;;;8.52;1.75;;;5.40;99.90;;;;;;5073681;28;20102;-62
2024/02/12 01:55:04;;;;;;;14.43;1.90;;;5.30;99.90;;;;;;5073868;28;20036;-63
2024/02/12 01:57:30;;;;;;;8.48;1.77;;;5.40;99.90;;;;;;5073783;28;20044;-63
2024/02/12 01:59:59;;;;;;;11.25;1.70;;;5.30;99.90;;;;;;5073330;28;20222;-63
2024/02/12 02:02:26;;;;;;;8.90;2.03;;;5.30;99.90;;;;;;5072699;28;20135;-62
2024/02/12 02:04:55;;;;;;;11.30;1.80;;;5.40;99.90;;;;;;5055554;28;20056;-63
2024/02/12 02:07:22;;;;;;;8.18;1.83;;;5.30;99.90;;;;;;5073043;28;20048;-63
2024/02/12 02:09:48;;;;;;;8.40;1.40;;;5.30;99.90;;;;;;5073292;28;20071;-62
2024/02/12 02:12:15;;;;;;;12.70;1.95;;;5.30;99.90;;;;;;5073097;28;20033;-63
2024/02/12 02:14:42;;;;;;;7.93;1.52;;;5.30;99.90;;;;;;5073113;28;20127;-62
2024/02/12 02:17:09;;;;;;;10.23;1.95;;;5.30;99.90;;;;;;5073265;28;20041;-63
2024/02/12 02:19:38;;;;;;;12.85;1.70;;;5.30;99.90;;;;;;5073568;28;20135;-63
2024/02/12 02:22:05;;;;;;;9.27;1.80;;;5.20;99.90;;;;;;5073469;28;20044;-63
2024/02/12 02:24:32;;;;;;;10.68;1.88;;;5.30;99.90;;;;;;5073314;28;20051;-63
2024/02/12 02:26:59;;;;;;;8.82;1.90;;;5.20;99.90;;;;;;5073648;28;20047;-63
2024/02/12 02:29:25;;;;;;;10.75;1.80;;;5.20;99.90;;;;;;5073576;28;20044;-63
2024/02/12 02:31:52;;;;;;;8.00;1.65;;;5.20;99.90;;;;;;5073753;28;20060;-62
2024/02/12 02:34:19;;;;;;;7.63;1.58;;;5.20;99.90;;;;;;5073481;28;20041;-63
2024/02/12 02:36:46;;;;;;;7.50;2.00;;;5.10;99.90;;;;;;5073142;28;20070;-62
2024/02/12 02:39:13;;;;;;;9.93;1.70;;;5.10;99.90;;;;;;5073231;28;20132;-62
2024/02/12 02:41:40;;;;;;;12.60;1.80;;;5.10;99.90;;;;;;5073233;28;20394;-63
2024/02/12 02:44:07;;;;;;;10.40;1.75;;;5.10;99.90;;;;;;5073040;28;20040;-62
2024/02/12 02:46:36;;;;;;;8.30;1.70;;;5.10;99.90;;;;;;5073223;28;20052;-63
2024/02/12 02:49:03;;;;;;;7.93;1.60;;;5.10;99.90;;;;;;5072728;28;20198;-62
2024/02/12 02:51:30;;;;;;;9.65;2.25;;;5.10;99.90;;;;;;5073139;28;20044;-62
2024/02/12 02:53:57;;;;;;;10.35;1.60;;;5.00;99.90;;;;;;5055032;28;20408;-63
2024/02/12 02:56:24;;;;;;;8.45;1.60;;;5.00;99.90;;;;;;5073079;28;20040;-62
2024/02/12 02:58:51;;;;;;;5.47;1.38;;;5.00;99.90;;;;;;5073147;28;20068;-62
2024/02/12 03:01:19;;;;;;;10.55;1.77;;;5.00;99.90;;;;;;5073398;28;20051;-62
2024/02/12 03:03:48;;;;;;;8.57;1.65;;;4.90;99.90;;;;;;5073252;28;20123;-63
2024/02/12 03:06:15;;;;;;;8.15;1.90;;;4.90;99.90;;;;;;5073103;28;20123;-62
2024/02/12 03:08:42;;;;;;;9.60;1.63;;;4.90;99.90;;;;;;5073171;28;20076;-62
2024/02/12 03:11:09;;;;;;;9.02;1.58;;;4.90;99.90;;;;;;5073158;28;20421;-63
2024/02/12 03:13:37;;;;;;;8.82;1.60;;;4.80;99.90;;;;;;5073532;28;20064;-62
2024/02/12 03:16:04;;;;;;;11.00;1.95;;;4.80;99.90;;;;;;5077034;28;20056;-62
2024/02/12 03:18:31;;;;;;;8.05;1.58;;;4.80;99.90;;;;;;5076926;28;20076;-62
2024/02/12 03:20:58;;;;;;;10.57;2.10;;;4.80;99.90;;;;;;5076615;28;20037;-62
2024/02/12 03:23:25;;;;;;;11.88;2.00;;;4.80;99.90;;;;;;5076709;28;20136;-62
2024/02/12 03:25:52;;;;;;;9.00;1.70;;;4.80;99.90;;;;;;5076206;28;20458;-62
2024/02/12 03:28:18;;;;;;;8.57;1.58;;;4.80;99.90;;;;;;5076411;28;20037;-62
2024/02/12 03:30:45;;;;;;;10.10;1.55;;;4.70;99.90;;;;;;5076619;28;20037;-62
2024/02/12 03:33:12;;;;;;;10.00;1.55;;;4.70;99.90;;;;;;5076526;28;20374;-62
2024/02/12 03:35:39;;;;;;;8.57;1.92;;;4.70;99.90;;;;;;5076558;28;20086;-62
2024/02/12 03:38:06;;;;;;;12.95;2.05;;;4.70;99.90;;;;;;5076247;28;20052;-62
2024/02/12 03:40:33;;;;;;;8.25;1.45;;;4.70;99.90;;;;;;5076175;28;20511;-62
2024/02/12 03:43:00;;;;;;;9.65;1.50;;;4.60;99.90;;;;;;5076069;28;20049;-62
2024/02/12 03:45:27;;;;;;;11.88;2.03;;;4.60;99.90;;;;;;5076534;28;20051;-62
2024/02/12 03:47:59;;;;;;;7.13;1.23;;;4.60;99.90;;;;;;5076349;28;20378;-62
2024/02/12 04:01:30;;;;;;;5.72;1.40;;;4.50;99.90;;;;;;5075998;28;20048;-62
2024/02/12 04:03:57;;;;;;;8.93;1.58;;;4.50;99.90;;;;;;5058236;28;20037;-63
2024/02/12 04:06:24;;;;;;;8.75;1.67;;;4.40;99.90;;;;;;5076072;28;20102;-62
2024/02/12 04:08:52;;;;;;;10.23;1.48;;;4.40;99.90;;;;;;5075783;28;20470;-62
2024/02/12 04:11:19;;;;;;;10.07;1.55;;;4.40;99.90;;;;;;5076014;28;20098;-62
2024/02/12 04:13:46;;;;;;;9.50;1.50;;;4.40;99.90;;;;;;5075274;28;20040;-62
2024/02/12 04:16:14;;;;;;;8.57;1.40;;;4.40;99.90;;;;;;5075661;28;20067;-62
2024/02/12 04:18:42;;;;;;;7.80;1.60;;;4.40;99.90;;;;;;5075315;28;20063;-62
2024/02/12 04:21:09;;;;;;;12.65;2.22;;;4.30;99.90;;;;;;5075611;28;20478;-62
2024/02/12 04:23:37;;;;;;;10.60;2.45;;;4.30;99.90;;;;;;5075402;28;20123;-62
2024/02/12 04:26:08;;;;;;;11.35;1.92;;;4.30;99.90;;;;;;5074878;28;20044;-62
2024/02/12 04:28:35;;;;;;;10.63;1.30;;;4.30;99.90;;;;;;5075438;28;20036;-62
2024/02/12 04:31:02;;;;;;;10.73;1.40;;;4.30;99.90;;;;;;5075517;28;20101;-62
2024/02/12 04:33:32;;;;;;;12.45;1.75;;;4.20;99.90;;;;;;5075503;28;20044;-62
2024/02/12 04:35:59;;;;;;;8.38;1.20;;;4.20;99.90;;;;;;5075400;28;20047;-63
2024/02/12 04:38:25;;;;;;;15.95;1.98;;;4.20;99.90;;;;;;5075246;28;20094;-62
2024/02/12 04:40:52;;;;;;;9.15;1.67;;;4.20;99.90;;;;;;5075259;28;20044;-62
2024/02/12 04:43:20;;;;;;;8.60;1.58;;;4.20;99.90;;;;;;5056890;28;20144;-62
2024/02/12 04:45:46;;;;;;;6.82;1.92;;;4.20;99.90;;;;;;5074942;28;20044;-62
2024/02/12 04:48:13;;;;;;;7.55;1.80;;;4.20;99.90;;;;;;5056566;28;20478;-62
2024/02/12 04:50:41;;;;;;;10.23;1.50;;;4.20;99.90;;;;;;5074962;28;20052;-63
2024/02/12 04:53:07;;;;;;;9.13;1.50;;;4.20;99.90;;;;;;5075317;28;20124;-61
2024/02/12 04:55:34;;;;;;;11.80;2.42;;;4.20;99.90;;;;;;5074725;28;20063;-61
2024/02/12 04:58:02;;;;;;;13.18;1.70;;;4.20;99.90;;;;;;5074476;28;20561;-65
2024/02/12 05:00:30;;;;;;;9.98;1.60;;;4.20;99.90;;;;;;5074897;28;20040;-61
2024/02/12 05:02:58;;;;;;;5.82;1.50;;;4.20;99.90;;;;;;5074961;28;20071;-62
2024/02/12 05:05:26;;;;;;;11.10;1.60;;;4.20;99.90;;;;;;5074660;28;20406;-62
2024/02/12 05:07:53;;;;;;;5.38;1.50;;;4.10;99.90;;;;;;5074608;28;20052;-61
2024/02/12 05:10:20;;;;;;;13.43;2.03;;;4.10;99.90;;;;;;5074242;28;20040;-61
2024/02/12 05:12:47;;;;;;;9.70;1.92;;;4.10;99.90;;;;;;5066433;28;20521;-61
2024/02/12 05:15:14;;;;;;;6.82;1.95;;;4.10;99.90;;;;;;5074376;28;20036;-62
2024/02/12 05:18:06;;;;;;;9.93;1.85;;;4.10;99.90;;;;;;5074282;28;20079;-62
2024/02/12 05:23:19;;;;;;;6.03;1.20;;;4.10;99.90;;;;;;5074024;28;20040;-62
2024/02/12 05:25:46;;;;;;;8.18;1.75;;;4.10;99.90;;;;;;5073850;28;20445;-61
2024/02/12 05:28:13;;;;;;;10.25;1.35;;;4.00;99.90;;;;;;5073596;28;20048;-61
2024/02/12 05:30:40;;;;;;;8.95;1.90;;;4.00;99.90;;;;;;5073750;28;20143;-61
2024/02/12 05:33:08;;;;;;;8.43;1.50;;;4.00;99.90;;;;;;5074175;28;20068;-61
2024/02/12 05:35:36;;;;;;;8.82;1.45;;;4.00;99.90;;;;;;5074365;28;20032;-61
2024/02/12 05:38:03;;;;;;;5.75;1.90;;;4.00;99.90;;;;;;5074313;28;20036;-61
2024/02/12 05:40:29;;;;;;;8.38;1.40;;;3.90;99.90;;;;;;5074156;28;20079;-62
2024/02/12 05:42:56;;;;;;;9.38;1.63;;;3.90;99.90;;;;;;5056080;28;20122;-61
2024/02/12 05:45:23;;;;;;;8.68;1.83;;;3.90;99.90;;;;;;5073677;28;20044;-61
2024/02/12 05:47:50;;;;;;;13.95;1.75;;;3.90;99.90;;;;;;5073759;28;20040;-61
2024/02/12 05:50:17;;;;;;;6.63;1.50;;;3.90;99.90;;;;;;5073783;28;20044;-61
2024/02/12 05:52:44;;;;;;;9.70;1.75;;;3.80;99.90;;;;;;5074084;28;20045;-61
2024/02/12 05:55:10;;;;;;;9.32;1.40;;;3.80;99.90;;;;;;5073565;28;20040;-61
2024/02/12 05:57:37;;;;;;;11.73;2.35;;;3.80;99.90;;;;;;5073987;28;20039;-61
2024/02/12 06:00:04;;;;;;;11.38;1.98;;;3.80;99.90;;;;;;5073533;28;20048;-61
2024/02/12 06:02:31;;;;;;;8.63;1.55;;;3.80;99.90;;;;;;5073887;28;20398;-61
2024/02/12 06:05:01;;;;;;;10.32;1.52;;;3.80;99.90;;;;;;5073740;28;20044;-61
2024/02/12 06:07:30;;;;;;;6.85;1.40;;;3.80;99.90;;;;;;5073431;28;20378;-61
2024/02/12 06:09:57;;;;;;;10.68;1.85;;;3.90;99.90;;;;;;5073507;28;20036;-61
2024/02/12 06:12:24;;;;;;;12.18;1.75;;;3.90;99.90;;;;;;5055690;28;20060;-61
2024/02/12 06:14:51;;;;;;;10.77;1.75;;;3.90;99.90;;;;;;5073559;28;20041;-61
2024/02/12 06:17:18;;;;;;;5.80;1.58;;;3.90;99.90;;;;;;5073447;28;20040;-61
2024/02/12 06:19:46;;;;;;;11.40;1.63;;;4.00;99.90;;;;;;5073651;28;20068;-60
2024/02/12 06:22:17;;;;;;;6.38;1.20;;;4.00;99.90;;;;;;5073568;28;20130;-60
2024/02/12 06:24:43;;;;;;;8.63;1.40;;;4.10;99.90;;;;;;5073273;28;20048;-60
2024/02/12 06:27:10;;;;;;;9.60;1.50;;;4.10;99.90;;;;;;5073382;28;20458;-60
2024/02/12 06:29:37;;;;;;;12.15;1.75;;;4.20;99.90;;;;;;5073452;28;20127;-60
2024/02/12 06:32:09;;;;;;;7.55;1.48;;;4.20;99.90;;;;;;5073609;28;20036;-60
2024/02/12 06:34:36;;;;;;;7.70;1.80;;;4.30;99.90;;;;;;5073011;28;20037;-63
2024/02/12 06:37:03;;;;;;;12.32;1.75;;;4.30;99.90;;;;;;5073458;28;20048;-63
2024/02/12 06:39:31;;;;;;;7.68;1.40;;;4.40;99.90;;;;;;5055510;28;20041;-61
2024/02/12 06:41:57;;;;;;;5.50;1.60;;;4.40;99.90;;;;;;5073271;28;20040;-61
2024/02/12 06:44:24;;;;;;;10.48;1.63;;;4.50;99.90;;;;;;5073085;28;20443;-61
2024/02/12 06:46:51;;;;;;;7.65;2.10;;;4.50;99.90;;;;;;5073273;28;20045;-61
2024/02/12 06:49:18;;;;;;;6.95;1.50;;;4.60;99.90;;;;;;5074681;28;20393;-61
2024/02/12 06:51:47;;;;;;;10.80;2.85;;;4.60;99.90;;;;;;5077337;28;20044;-61
2024/02/12 06:54:14;;;;;;;8.05;1.90;;;4.60;99.90;;;;;;5077075;28;20071;-61
2024/02/12 06:56:41;;;;;;;10.32;1.58;;;4.70;99.90;;;;;;5076920;28;20135;-61
2024/02/12 06:59:08;;;;;;;13.02;1.98;;;4.70;99.90;;;;;;5076952;28;20119;-61
2024/02/12 07:01:36;;;;;;;10.35;1.60;;;4.80;99.90;;;;;;5077396;28;20466;-60
2024/02/12 07:04:03;;;;;;;7.05;1.45;;;4.80;99.90;;;;;;5077190;28;20115;-61
2024/02/12 07:06:31;;;;;;;5.43;1.65;;;4.80;99.90;;;;;;5077315;28;20064;-60
2024/02/12 07:08:57;;;;;;;5.55;1.48;;;4.90;99.90;;;;;;5076665;28;20095;-60
2024/02/12 07:11:25;;;;;;;11.07;1.98;;;4.90;99.90;;;;;;5059299;28;20044;-60
2024/02/12 07:13:52;;;;;;;8.93;2.05;;;4.90;99.90;;;;;;5076436;28;20428;-60
2024/02/12 07:16:19;;;;;;;11.05;1.80;;;5.00;99.90;;;;;;5076977;28;20041;-60
2024/02/12 07:18:46;;;;;;;8.77;1.50;;;5.00;99.90;;;;;;5058883;28;20102;-60
2024/02/12 07:21:13;;;;;;;8.05;1.60;;;5.10;99.90;;;;;;5076590;28;20055;-60
2024/02/12 07:23:40;;;;;;;8.25;1.60;;;5.20;99.90;;;;;;5058761;28;20037;-61
2024/02/12 07:26:07;;;;;;;9.27;1.63;;;5.10;99.90;;;;;;5059186;28;20477;-60
2024/02/12 07:28:34;;;;;;;5.00;1.45;;;5.20;99.90;;;;;;5058475;28;20412;-60
2024/02/12 07:31:03;;;;;;;7.65;1.55;;;5.20;99.90;;;;;;5076282;28;20044;-60
2024/02/12 07:33:30;;;;;;;8.75;1.50;;;5.20;99.90;;;;;;5058638;28;20036;-60
2024/02/12 07:35:57;;;;;;;8.27;1.33;;;5.20;99.90;;;;;;5076481;28;20037;-60
2024/02/12 07:38:24;;;;;;;8.10;2.10;;;5.20;99.90;;;;;;5076605;28;20051;-61
2024/02/12 07:40:53;;;;;;;7.25;1.75;;;5.20;99.90;;;;;;5076167;28;20045;-61
2024/02/12 07:43:20;;;;;;;6.10;1.55;;;5.10;99.90;;;;;;5076248;28;20466;-62
2024/02/12 07:45:47;;;;;;;6.38;1.50;;;5.10;99.90;;;;;;5067939;28;20036;-62
2024/02/12 07:48:15;;;;;;;7.28;1.50;;;5.10;99.90;;;;;;5058149;28;20040;-61
2024/02/12 07:50:42;;;;;;;7.10;1.58;;;5.10;99.90;;;;;;5075888;28;20351;-61
2024/02/12 07:53:09;;;;;;;7.88;1.42;;;5.00;99.90;;;;;;5076106;28;20037;-61
2024/02/12 07:55:36;;;;;;;7.13;1.70;;;5.00;99.90;;;;;;5041518;28;20088;-61
2024/02/12 07:58:02;;;;;;;8.23;1.58;;;5.00;99.90;;;;;;5075894;28;20037;-60
2024/02/12 08:00:29;;;;;;;9.80;1.88;;;5.00;99.90;;;;;;5074577;28;20052;-60
2024/02/12 08:02:56;;;;;;;9.85;1.55;;;5.00;99.90;;;;;;5076132;28;20043;-60
2024/02/12 08:05:23;;;;;;;8.77;1.58;;;5.00;99.90;;;;;;5075759;28;20040;-60
2024/02/12 08:07:50;;;;;;;9.98;2.00;;;5.00;99.90;;;;;;5075768;28;20422;-60
2024/02/12 08:10:28;;;;;;;5.20;1.63;;;5.00;99.90;;;;;;5075421;28;20040;-60
2024/02/12 08:12:56;;;;;;;10.43;1.70;;;5.00;99.90;;;;;;5075591;28;20036;-60
2024/02/12 08:15:23;;;;;;;7.35;1.60;;;5.00;99.90;;;;;;5075303;28;20040;-61
2024/02/12 08:17:49;;;;;;;5.28;1.40;;;5.00;99.90;;;;;;5075361;28;20044;-60
2024/02/12 08:20:17;;;;;;;6.60;1.33;;;5.00;99.90;;;;;;5075574;28;20078;-61
2024/02/12 08:22:45;;;;;;;5.38;1.50;;;5.10;99.90;;;;;;5075535;28;20105;-60
2024/02/12 08:25:12;;;;;;;9.32;1.25;;;5.10;99.90;;;;;;5075274;28;20127;-60
2024/02/12 08:27:38;;;;;;;5.43;1.33;;;5.10;99.90;;;;;;5075150;28;20468;-61
2024/02/12 08:30:06;;;;;;;8.93;1.70;;;5.10;99.90;;;;;;5075096;28;20112;-61
2024/02/12 08:32:33;;;;;;;7.57;1.40;;;5.20;99.90;;;;;;5075228;28;20504;-60
2024/02/12 08:35:00;;;;;;;7.53;1.40;;;5.20;99.90;;;;;;5075112;28;20060;-60
2024/02/12 08:37:27;;;;;;;7.45;1.60;;;5.30;99.90;;;;;;5074982;28;20036;-61
2024/02/12 08:39:54;;;;;;;7.47;1.52;;;5.30;99.90;;;;;;5075103;28;20079;-62
2024/02/12 08:42:21;;;;;;;5.22;1.33;;;5.40;99.90;;;;;;5075534;28;20389;-60
2024/02/12 08:44:51;;;;;;;9.23;1.63;;;5.40;99.90;;;;;;5074890;28;20052;-63
2024/02/12 08:47:17;;;;;;;7.10;1.65;;;5.40;99.90;;;;;;5080875;28;20040;-63
2024/02/12 08:49:45;;;;;;;6.22;1.40;;;5.40;99.90;;;;;;5088686;28;21039;-63
2024/02/12 08:52:12;;;;;;;9.10;2.03;;;5.40;99.90;;;;;;5056004;28;20037;-63
2024/02/12 08:54:39;;;;;;;7.47;1.52;;;5.40;99.90;;;;;;5071848;28;20033;-60
2024/02/12 08:57:10;;;;;;;7.30;1.80;;;5.30;99.90;;;;;;5073782;28;20032;-59
2024/02/12 08:59:38;;;;;;;5.65;1.55;;;5.30;99.90;;;;;;5074172;28;20094;-60
2024/02/12 09:02:06;;;;;;;8.77;1.60;;;5.30;99.90;;;;;;5074147;28;20059;-60
2024/02/12 09:04:35;;;;;;;5.10;1.67;;;5.40;99.90;;;;;;5073594;28;20060;-60
2024/02/12 09:07:02;;;;;;;6.53;1.60;;;5.40;99.90;;;;;;5069344;28;20120;-59
2024/02/12 09:09:29;;;;;;;6.28;1.35;;;5.40;99.90;;;;;;5071503;28;20044;-60
2024/02/12 09:11:58;;;;;;;6.85;1.50;;;5.40;99.90;;;;;;5073772;28;20036;-59
2024/02/12 09:14:25;;;;;;;7.88;1.85;;;5.50;99.90;;;;;;5073437;28;20519;-60
2024/02/12 09:16:51;;;;;;;8.15;1.48;;;5.50;99.90;;;;;;5073734;28;20090;-59
2024/02/12 09:19:18;;;;;;;7.78;1.50;;;5.50;99.90;;;;;;5073758;28;20163;-59
2024/02/12 09:21:46;;;;;;;6.65;1.42;;;5.60;99.90;;;;;;5085453;28;20071;-60
2024/02/12 09:24:14;;;;;;;4.38;1.40;;;5.60;99.90;;;;;;5094088;28;20448;-60
2024/02/12 09:26:41;;;;;;;5.65;1.38;;;5.60;99.90;;;;;;5093969;28;20044;-60
2024/02/12 09:29:08;;;;;;;9.55;1.30;;;5.70;99.90;;;;;;5087950;28;20507;-59
2024/02/12 09:31:35;;;;;;;4.88;1.30;;;5.70;99.90;;;;;;5073555;28;20482;-61
2024/02/12 09:34:02;;;;;;;4.55;1.30;;;5.80;99.90;;;;;;5067250;28;20036;-60
2024/02/12 09:36:29;;;;;;;5.40;1.50;;;5.80;99.90;;;;;;5073386;28;20037;-60
2024/02/12 09:38:56;;;;;;;5.38;1.40;;;5.80;99.90;;;;;;5067503;28;20040;-60
2024/02/12 09:41:24;;;;;;;7.47;1.45;;;5.80;99.90;;;;;;5073274;28;20059;-61
2024/02/12 09:43:51;;;;;;;5.22;1.38;;;5.80;99.90;;;;;;5073112;28;20036;-60
2024/02/12 09:46:18;;;;;;;6.65;1.50;;;5.90;99.90;;;;;;5049087;28;20353;-60
2024/02/12 09:48:46;;;;;;;5.85;1.52;;;5.90;99.90;;;;;;5055569;28;20063;-61
2024/02/12 09:51:15;;;;;;;4.82;1.20;;;6.00;99.90;;;;;;5055602;28;20465;-61
2024/02/12 09:53:42;;;;;;;6.80;1.63;;;6.00;99.90;;;;;;5072903;28;20398;-61
2024/02/12 09:56:09;;;;;;;4.50;1.33;;;6.00;99.90;;;;;;5079685;28;20059;-61
2024/02/12 09:58:37;;;;;;;4.90;1.80;;;6.10;99.90;;;;;;5092638;28;20047;-61
2024/02/12 10:01:08;;;;;;;5.30;1.63;;;6.10;99.90;;;;;;5092575;28;20120;-61
2024/02/12 10:03:34;;;;;;;8.68;1.77;;;6.10;99.90;;;;;;5094033;28;20385;-61
2024/02/12 10:06:01;;;;;;;4.75;1.38;;;6.20;99.90;;;;;;5094042;28;20520;-61
2024/02/12 10:08:28;;;;;;;4.20;1.38;;;6.20;99.90;;;;;;5078348;28;20488;-61
2024/02/12 10:10:56;;;;;;;4.72;1.60;;;6.20;99.90;;;;;;5073393;28;20449;-61
2024/02/12 10:13:23;;;;;;;7.60;1.40;;;6.30;99.90;;;;;;5073459;28;20051;-62
2024/02/12 10:15:50;;;;;;;7.90;1.27;;;6.30;99.90;;;;;;5073450;28;20112;-61
2024/02/12 10:18:17;;;;;;;9.07;1.30;;;6.40;99.90;;;;;;5072386;28;20072;-61
2024/02/12 10:20:44;;;;;;;5.10;1.52;;;6.40;99.90;;;;;;5055640;28;20052;-61
2024/02/12 10:23:11;;;;;;;6.25;1.60;;;6.40;99.90;;;;;;5072855;28;20094;-61
2024/02/12 10:25:38;;;;;;;5.80;1.60;;;6.50;99.90;;;;;;5072155;28;20532;-63
2024/02/12 10:28:06;;;;;;;4.40;1.00;;;6.50;99.90;;;;;;5054753;28;20055;-62
2024/02/12 10:30:33;;;;;;;7.03;1.38;;;6.60;99.90;;;;;;5072796;28;20040;-62
2024/02/12 10:33:00;;;;;;;9.30;1.60;;;6.60;99.90;;;;;;5072346;28;20036;-62
2024/02/12 10:35:28;;;;;;;5.47;1.35;;;6.60;99.90;;;;;;5072450;28;20481;-63
2024/02/12 10:37:55;;;;;;;6.65;1.40;;;6.70;99.90;;;;;;5064995;28;20045;-62
2024/02/12 10:40:22;;;;;;;5.80;1.45;;;6.80;99.90;;;;;;5072870;28;20154;-62
2024/02/12 10:42:50;;;;;;;4.22;1.42;;;6.90;99.90;;;;;;5072732;28;20124;-62
2024/02/12 10:45:17;;;;;;;3.75;1.30;;;6.90;99.90;;;;;;5038270;28;20139;-62
2024/02/12 10:47:43;;;;;;;4.93;1.23;;;6.90;99.90;;;;;;5072556;28;20086;-62
2024/02/12 10:50:13;;;;;;;5.20;1.30;;;6.90;99.90;;;;;;5054394;28;20475;-62
2024/02/12 10:52:43;;;;;;;4.78;1.30;;;7.00;99.90;;;;;;5072264;28;20041;-61
2024/02/12 10:55:10;;;;;;;3.42;1.23;;;7.00;99.90;;;;;;5072478;28;20490;-60
2024/02/12 10:57:37;;;;;;;5.45;1.30;;;7.10;99.90;;;;;;5072720;28;20094;-61
2024/02/12 11:00:06;;;;;;;3.80;1.08;;;7.10;99.90;;;;;;5072525;28;20048;-62
2024/02/12 11:02:33;;;;;;;6.93;1.52;;;7.10;99.90;;;;;;5072639;28;20049;-62
2024/02/12 11:05:00;;;;;;;3.90;1.42;;;7.10;99.90;;;;;;5072285;28;20032;-61
2024/02/12 11:07:28;;;;;;;5.32;1.15;;;7.10;99.90;;;;;;5071925;28;20079;-62
2024/02/12 11:09:56;;;;;;;3.97;0.93;;;7.20;99.90;;;;;;5072356;28;20124;-62
2024/02/12 11:12:24;;;;;;;7.32;1.88;;;7.30;99.90;;;;;;5072427;28;20111;-62
2024/02/12 11:14:51;;;;;;;3.10;1.02;;;7.30;99.90;;;;;;5072325;28;20040;-61
2024/02/12 11:17:17;;;;;;;7.40;1.10;;;7.40;99.90;;;;;;5072217;28;20040;-61
2024/02/12 11:19:44;;;;;;;5.47;1.23;;;7.40;99.90;;;;;;5072059;28;20490;-61
2024/02/12 11:22:11;;;;;;;5.05;1.10;;;7.40;99.90;;;;;;5072354;28;20075;-63
2024/02/12 11:24:39;;;;;;;5.07;1.20;;;7.40;99.90;;;;;;5072247;28;20037;-63
2024/02/12 11:27:08;;;;;;;3.35;1.00;;;7.50;99.90;;;;;;5072098;28;20054;-64
2024/02/12 11:29:35;;;;;;;4.05;1.00;;;7.50;99.90;;;;;;5072328;28;20426;-63
2024/02/12 11:32:04;;;;;;;2.75;0.90;;;7.50;99.90;;;;;;5072228;28;20111;-62
2024/02/12 11:34:31;;;;;;;3.67;1.10;;;7.50;99.90;;;;;;5072119;28;20771;-61
2024/02/12 11:36:58;;;;;;;4.13;0.85;;;7.60;99.90;;;;;;5075878;28;20052;-62
2024/02/12 11:39:24;;;;;;;3.08;0.80;;;7.60;99.90;;;;;;5075943;28;20160;-60
2024/02/12 11:41:51;;;;;;;6.15;1.00;;;7.60;99.90;;;;;;5074897;28;20042;-61
2024/02/12 11:44:18;;;;;;;3.40;0.85;;;7.70;99.90;;;;;;5075591;28;20044;-61
2024/02/12 11:46:45;;;;;;;3.30;1.00;;;7.70;99.90;;;;;;5075452;28;20045;-60
2024/02/12 11:49:12;;;;;;;7.80;1.27;;;7.70;99.90;;;;;;5057646;28;20125;-61
2024/02/12 11:51:39;;;;;;;5.45;1.23;;;7.80;99.90;;;;;;5075367;28;20037;-60
2024/02/12 11:54:06;;;;;;;3.00;0.98;;;7.80;99.90;;;;;;5075358;28;20045;-60
2024/02/12 11:56:32;;;;;;;2.90;0.90;;;7.80;99.90;;;;;;5057479;28;20050;-69
2024/02/12 11:58:59;;;;;;;4.10;0.85;;;7.80;99.90;;;;;;5057575;28;20044;-68
2024/02/12 12:01:34;;;;;;;2.85;1.00;;;7.80;99.90;;;;;;5075308;28;20047;-69
2024/02/12 12:04:01;;;;;;;5.47;1.02;;;7.90;99.90;;;;;;5075324;28;20177;-68
2024/02/12 12:06:27;;;;;;;3.28;1.05;;;7.90;99.90;;;;;;5075143;28;20115;-68
2024/02/12 12:08:56;;;;;;;3.75;0.88;;;7.90;99.90;;;;;;5069258;28;20043;-68
2024/02/12 12:11:23;;;;;;;3.72;1.08;;;7.90;99.90;;;;;;5075133;28;20037;-68
2024/02/12 12:13:51;;;;;;;6.65;1.25;;;8.00;99.90;;;;;;5075367;28;20048;-68
2024/02/12 12:16:17;;;;;;;4.90;1.95;;;8.00;99.90;;;;;;5075279;28;20048;-69
2024/02/12 12:18:44;;;;;;;3.30;0.90;;;8.10;99.90;;;;;;5075014;28;20056;-68
2024/02/12 12:21:11;;;;;;;5.05;1.00;;;8.10;99.90;;;;;;5075110;28;20045;-69
2024/02/12 12:23:38;;;;;;;2.63;0.85;;;8.20;99.90;;;;;;5075216;28;20068;-69
2024/02/12 12:26:07;;;;;;;4.43;0.90;;;8.30;99.90;;;;;;5075149;28;20070;-69
2024/02/12 12:28:37;;;;;;;5.00;1.10;;;8.20;99.90;;;;;;5075553;28;20040;-68
2024/02/12 12:31:04;;;;;;;3.00;0.90;;;8.30;99.90;;;;;;5075533;28;20036;-60
2024/02/12 12:33:32;;;;;;;3.55;1.27;;;8.40;99.90;;;;;;5057892;28;20060;-60
2024/02/12 12:35:59;;;;;;;4.80;1.00;;;8.40;99.90;;;;;;5075195;28;20091;-64
2024/02/12 12:38:26;;;;;;;6.70;2.25;;;8.40;99.90;;;;;;5075319;28;20033;-64
2024/02/12 12:40:53;;;;;;;3.55;2.03;;;8.40;99.90;;;;;;5075556;28;20472;-60
2024/02/12 12:43:20;;;;;;;5.18;1.48;;;8.50;99.90;;;;;;5075474;28;20044;-60
2024/02/12 12:45:47;;;;;;;5.47;1.27;;;8.60;99.90;;;;;;5075239;28;20410;-60
2024/02/12 12:48:15;;;;;;;4.65;0.90;;;8.70;99.90;;;;;;5074487;28;20048;-61
2024/02/12 12:50:42;;;;;;;3.67;1.00;;;8.60;99.90;;;;;;5074459;28;20119;-62
2024/02/12 12:53:26;;;;;;;6.22;1.10;;;8.60;99.90;;;;;;5057061;28;20052;-62
2024/02/12 12:55:53;;;;;;;4.38;1.13;;;8.50;99.90;;;;;;5074099;28;20032;-62
2024/02/12 12:58:20;;;;;;;3.17;1.10;;;8.50;99.90;;;;;;5074192;28;20032;-61
2024/02/12 13:00:47;;;;;;;4.97;0.90;;;8.50;99.90;;;;;;5074409;28;20036;-61
2024/02/12 13:03:14;;;;;;;4.03;0.93;;;8.60;99.90;;;;;;5074544;28;20051;-61
2024/02/12 13:05:41;;;;;;;2.65;0.77;;;8.70;99.90;;;;;;5071205;28;20056;-61
2024/02/12 13:08:12;;;;;;;7.15;1.33;;;8.70;99.90;;;;;;5069378;28;20044;-69
2024/02/12 13:10:47;;;;;;;1.80;0.60;;;8.70;99.90;;;;;;5055832;28;20037;-70